createdAt,value
2017-01-26T00:01:18.479Z,1018.9
2017-01-26T00:11:31.028Z,1018.8
2017-01-26T00:21:43.588Z,1018.6
2017-01-26T00:31:56.095Z,1018.7
2017-01-26T00:42:08.597Z,1018.5
2017-01-26T00:52:21.150Z,1018.4
2017-01-26T01:02:33.807Z,1018.4
2017-01-26T01:12:46.480Z,1018.2
2017-01-26T01:22:59.215Z,1018.2
2017-01-26T01:33:11.971Z,1018.1
2017-01-26T01:43:24.649Z,1018
2017-01-26T01:53:37.378Z,1018
2017-01-26T02:03:50.144Z,1017.8
2017-01-26T02:14:02.918Z,1017.8
2017-01-26T02:24:15.732Z,1017.6
2017-01-26T02:34:28.560Z,1017.6
2017-01-26T02:44:41.316Z,1017.5
2017-01-26T02:54:54.154Z,1017.5
2017-01-26T03:05:06.931Z,1017.5
2017-01-26T03:15:19.617Z,1017.5
2017-01-26T03:25:32.291Z,1017.3
2017-01-26T03:35:44.937Z,1017.3
2017-01-26T03:45:57.575Z,1017.3
2017-01-26T03:56:10.389Z,1017.1
2017-01-26T04:06:22.941Z,1017
2017-01-26T04:16:35.575Z,1016.9
2017-01-26T04:26:48.290Z,1017
2017-01-26T04:37:01.020Z,1016.9
2017-01-26T04:47:13.664Z,1016.8
2017-01-26T04:57:26.425Z,1016.7
2017-01-26T05:07:39.168Z,1016.5
2017-01-26T05:17:52.003Z,1016.4
2017-01-26T05:28:04.841Z,1016.3
2017-01-26T05:38:17.758Z,1016.3
2017-01-26T05:48:30.657Z,1016.1
2017-01-26T05:58:43.629Z,1016.1
2017-01-26T06:08:56.272Z,1016.1
2017-01-26T06:19:08.908Z,1016.1
2017-01-26T06:29:21.581Z,1016.1
2017-01-26T06:39:34.263Z,1016.1
2017-01-26T06:49:46.979Z,1016
2017-01-26T06:59:59.678Z,1016.1
2017-01-26T07:10:12.402Z,1016.1
2017-01-26T07:20:25.158Z,1016.1
2017-01-26T07:30:37.864Z,1016.2
2017-01-26T07:40:50.492Z,1016.1
2017-01-26T07:51:02.915Z,1016.3
2017-01-26T08:01:15.113Z,1016.3
2017-01-26T08:11:27.133Z,1016.3
2017-01-26T08:21:39.000Z,1016.3
2017-01-26T08:31:50.734Z,1016.3
2017-01-26T08:42:02.231Z,1016.2
2017-01-26T08:52:13.732Z,1016.3
2017-01-26T09:02:25.069Z,1016.3
2017-01-26T09:12:36.298Z,1016.3
2017-01-26T09:22:47.437Z,1016.1
2017-01-26T09:32:58.603Z,1016.2
2017-01-26T09:43:09.640Z,1016.2
2017-01-26T09:53:20.672Z,1016.1
2017-01-26T10:03:31.672Z,1016.2
2017-01-26T10:13:42.619Z,1016.1
2017-01-26T10:23:53.455Z,1016
2017-01-26T10:34:04.354Z,1015.7
2017-01-26T10:44:14.996Z,1015.8
2017-01-26T10:54:25.646Z,1015.6
2017-01-26T11:04:36.270Z,1015.9
2017-01-26T11:14:46.848Z,1015.8
2017-01-26T11:24:57.591Z,1015.5
2017-01-26T11:35:08.399Z,1015.5
2017-01-26T11:45:19.208Z,1015.4
2017-01-26T11:55:29.917Z,1015.3
2017-01-26T12:05:40.649Z,1015.1
2017-01-26T12:15:51.228Z,1014.9
2017-01-26T12:26:01.942Z,1014.8
2017-01-26T12:36:12.601Z,1014.7
2017-01-26T12:46:23.248Z,1014.6
2017-01-26T12:56:33.933Z,1014.7
2017-01-26T13:06:44.620Z,1014.8
2017-01-26T13:16:55.197Z,1014.7
2017-01-26T13:27:05.809Z,1014.8
2017-01-26T13:37:16.387Z,1014.7
2017-01-26T13:47:26.920Z,1014.6
2017-01-26T13:57:37.441Z,1014.4
2017-01-26T14:07:47.954Z,1014.3
2017-01-26T14:17:58.433Z,1014
2017-01-26T14:28:08.970Z,1013.9
2017-01-26T14:38:19.474Z,1013.8
2017-01-26T14:48:29.989Z,1013.7
2017-01-26T14:58:40.603Z,1013.4
2017-01-26T15:08:51.071Z,1013.4
2017-01-26T15:19:01.745Z,1013.3
2017-01-26T15:29:12.584Z,1013.2
2017-01-26T15:39:23.623Z,1013.1
2017-01-26T15:49:34.628Z,1013.2
2017-01-26T15:59:45.943Z,1013.1
2017-01-26T16:09:57.535Z,1013
2017-01-26T16:20:09.284Z,1013
2017-01-26T16:30:21.188Z,1012.9
2017-01-26T16:40:33.149Z,1012.9
2017-01-26T16:50:45.193Z,1012.8
2017-01-26T17:00:57.294Z,1012.7
2017-01-26T17:11:09.415Z,1012.8
2017-01-26T17:21:21.503Z,1012.8
2017-01-26T17:31:33.599Z,1012.8
2017-01-26T17:41:45.721Z,1012.8
2017-01-26T17:51:57.863Z,1012.6
2017-01-26T18:02:10.073Z,1012.7
2017-01-26T18:12:22.185Z,1012.5
2017-01-26T18:22:34.328Z,1012.5
2017-01-26T18:32:46.495Z,1012.3
2017-01-26T18:42:58.699Z,1012.3
2017-01-26T18:53:10.970Z,1012.3
2017-01-26T19:03:23.255Z,1012.3
2017-01-26T19:13:35.541Z,1012.3
2017-01-26T19:23:47.886Z,1012.1
2017-01-26T19:34:00.204Z,1012.2
2017-01-26T19:44:12.559Z,1012.1
2017-01-26T19:54:24.897Z,1012.1
2017-01-26T20:04:37.203Z,1012
2017-01-26T20:14:49.484Z,1012
2017-01-26T20:25:01.824Z,1011.9
2017-01-26T20:35:14.222Z,1011.9
2017-01-26T20:45:26.621Z,1011.9
2017-01-26T20:55:39.021Z,1011.9
2017-01-26T21:05:51.467Z,1011.8
2017-01-26T21:16:03.932Z,1011.6
2017-01-26T21:26:16.298Z,1011.6
2017-01-26T21:36:28.771Z,1011.5
2017-01-26T21:46:41.273Z,1011.6
2017-01-26T21:56:53.768Z,1011.5
2017-01-26T22:07:06.266Z,1011.5
2017-01-26T22:17:18.733Z,1011.4
2017-01-26T22:27:31.241Z,1011.4
2017-01-26T22:37:43.727Z,1011.2
2017-01-26T22:47:56.252Z,1011.2
2017-01-26T22:58:08.806Z,1010.9
2017-01-26T23:08:21.382Z,1010.9
2017-01-26T23:18:33.965Z,1010.7
2017-01-26T23:28:46.551Z,1010.6
2017-01-26T23:38:59.124Z,1010.6
2017-01-26T23:49:11.664Z,1010.5
2017-01-26T23:59:24.182Z,1010.4
